Time;durP1;ratioP1;P1;durP2;ratioP2;P2;SDS_P1;SDS_P2;PMS_P1;PMS_P2;Temp;Humidity;BMP_temperature;BMP_pressure;BME280_temperature;BME280_humidity;BME280_pressure;Samples;Min_cycle;Max_cycle;Signal;HPM_P1;HPM_P2
2021/11/20 00:00:12;;;;;;;4.68;2.58;;;11.60;99.90;;;;;;20758200;28;20119;-45
2021/11/20 00:10:16;;;;;;;5.15;2.35;;;11.60;99.90;;;;;;20758799;28;20144;-46
2021/11/20 00:20:20;;;;;;;7.60;2.22;;;11.50;99.90;;;;;;20757134;28;20061;-46
2021/11/20 00:30:25;;;;;;;5.53;2.30;;;11.50;99.90;;;;;;20750718;28;20041;-45
2021/11/20 00:44:59;;;;;;;5.25;2.40;;;11.50;99.90;;;;;;20740276;27;20664;-46
2021/11/20 00:55:00;;;;;;;5.50;2.47;;;11.60;99.90;;;;;;20735703;28;20053;-46
2021/11/20 01:05:04;;;;;;;4.25;2.25;;;11.50;99.90;;;;;;20732012;28;20034;-46
2021/11/20 01:15:09;;;;;;;10.38;2.92;;;11.40;99.90;;;;;;20739420;28;20035;-46
2021/11/20 01:25:11;;;;;;;6.25;3.38;;;11.40;99.90;;;;;;20745488;28;20038;-46
2021/11/20 01:35:13;;;;;;;6.93;3.42;;;11.30;99.90;;;;;;20764328;28;20046;-46
2021/11/20 01:45:34;;;;;;;6.68;3.00;;;11.20;99.90;;;;;;20820124;28;20038;-46
2021/11/20 01:55:45;;;;;;;9.85;3.65;;;11.20;99.90;;;;;;20762435;28;20448;-46
2021/11/20 02:05:50;;;;;;;10.40;4.38;;;11.20;99.90;;;;;;20760918;28;20430;-46
2021/11/20 02:16:01;;;;;;;9.38;3.25;;;11.20;99.90;;;;;;20763434;28;20051;-46
2021/11/20 02:26:03;;;;;;;11.60;3.92;;;11.20;99.90;;;;;;20767497;28;20313;-46
2021/11/20 02:36:13;;;;;;;12.13;4.22;;;11.10;99.90;;;;;;20760205;28;20052;-46
2021/11/20 02:46:18;;;;;;;11.50;5.43;;;11.10;99.90;;;;;;20760591;28;20050;-46
2021/11/20 02:56:22;;;;;;;10.15;4.75;;;11.20;99.90;;;;;;20758568;28;20065;-46
2021/11/20 03:06:23;;;;;;;11.85;4.30;;;11.20;99.90;;;;;;20760775;28;20040;-46
2021/11/20 03:16:25;;;;;;;11.50;4.45;;;11.20;99.90;;;;;;20764784;28;20509;-46
2021/11/20 03:26:26;;;;;;;12.73;4.63;;;11.20;99.90;;;;;;20761151;28;20046;-46
2021/11/20 03:36:27;;;;;;;10.43;5.18;;;11.10;99.90;;;;;;20765181;28;20048;-46
2021/11/20 03:46:28;;;;;;;13.77;4.55;;;11.20;99.90;;;;;;20762371;28;20029;-46
2021/11/20 03:56:32;;;;;;;16.65;6.28;;;11.20;99.90;;;;;;20758846;28;20056;-46
2021/11/20 04:06:33;;;;;;;10.77;4.65;;;11.10;99.90;;;;;;20756391;28;20032;-46
2021/11/20 04:16:35;;;;;;;16.00;5.20;;;11.20;99.90;;;;;;20767265;28;20489;-46
2021/11/20 04:26:37;;;;;;;12.43;4.95;;;11.10;99.90;;;;;;20767903;28;20037;-45
2021/11/20 04:36:38;;;;;;;12.80;4.32;;;11.10;99.90;;;;;;20758506;28;20053;-46
2021/11/20 04:46:40;;;;;;;10.23;4.53;;;11.00;99.90;;;;;;20755646;28;20042;-47
2021/11/20 04:56:41;;;;;;;13.48;5.05;;;11.00;99.90;;;;;;20765217;28;20033;-46
2021/11/20 05:06:42;;;;;;;10.45;4.60;;;11.00;99.90;;;;;;20755678;28;20045;-46
2021/11/20 05:16:44;;;;;;;12.05;4.15;;;11.00;99.90;;;;;;20754763;28;20092;-47
2021/11/20 05:26:45;;;;;;;10.18;4.28;;;11.00;99.90;;;;;;20770590;28;20033;-46
2021/11/20 05:36:46;;;;;;;13.63;4.82;;;11.00;99.90;;;;;;20764156;28;20041;-46
2021/11/20 05:46:48;;;;;;;12.95;5.35;;;11.10;99.90;;;;;;20767782;28;20048;-46
2021/11/20 05:56:50;;;;;;;14.15;5.40;;;11.00;99.90;;;;;;20767856;28;20519;-46
2021/11/20 06:06:51;;;;;;;16.05;5.85;;;11.00;99.90;;;;;;20767872;28;20068;-46
2021/11/20 06:16:53;;;;;;;14.90;5.35;;;10.90;99.90;;;;;;20763251;28;20037;-46
2021/11/20 06:26:54;;;;;;;14.05;6.18;;;10.90;99.90;;;;;;20756966;28;20034;-46
2021/11/20 06:36:55;;;;;;;23.48;7.93;;;10.80;99.90;;;;;;20757227;28;20049;-46
2021/11/20 06:46:57;;;;;;;17.58;7.35;;;10.90;99.90;;;;;;20762098;28;20236;-46
2021/11/20 06:57:05;;;;;;;16.90;7.10;;;10.80;99.90;;;;;;20762261;28;20076;-46
2021/11/20 07:07:13;;;;;;;15.48;6.43;;;10.80;99.90;;;;;;20737150;28;21333;-45
2021/11/20 07:17:15;;;;;;;19.30;8.80;;;10.80;99.90;;;;;;20729099;28;20046;-46
2021/11/20 07:27:17;;;;;;;21.05;8.10;;;10.80;99.90;;;;;;20734872;28;20042;-46
2021/11/20 07:37:18;;;;;;;21.13;7.22;;;10.80;99.90;;;;;;20732235;28;20056;-46
2021/11/20 07:47:19;;;;;;;20.60;8.02;;;10.80;99.90;;;;;;20727433;28;20045;-46
2021/11/20 07:57:21;;;;;;;20.98;7.13;;;10.80;99.90;;;;;;20732286;28;20052;-45
2021/11/20 08:07:22;;;;;;;15.27;6.75;;;10.80;99.90;;;;;;20731942;28;20508;-46
2021/11/20 08:17:23;;;;;;;14.75;6.07;;;10.70;99.90;;;;;;20727083;28;20045;-45
2021/11/20 08:27:24;;;;;;;16.48;6.45;;;10.80;99.90;;;;;;20736233;28;20092;-45
2021/11/20 08:37:26;;;;;;;16.75;6.78;;;10.90;99.90;;;;;;20729423;28;20061;-46
2021/11/20 08:47:27;;;;;;;13.52;6.10;;;10.90;99.90;;;;;;20689291;28;20045;-45
2021/11/20 08:57:28;;;;;;;19.60;8.30;;;10.90;99.90;;;;;;20726849;28;20044;-45
2021/11/20 09:07:39;;;;;;;23.02;7.75;;;11.00;99.90;;;;;;20735154;28;20725;-45
2021/11/20 09:17:41;;;;;;;17.38;7.32;;;11.00;99.90;;;;;;20746635;28;20045;-45
2021/11/20 09:27:43;;;;;;;21.70;7.65;;;11.00;99.90;;;;;;20725868;28;20040;-46
2021/11/20 09:37:45;;;;;;;26.50;9.25;;;11.00;99.90;;;;;;20739966;28;20038;-45
2021/11/20 09:47:50;;;;;;;20.80;7.95;;;11.10;99.90;;;;;;20719035;28;20033;-46
2021/11/20 09:58:17;;;;;;;23.30;9.07;;;11.10;99.90;;;;;;20703152;28;20045;-46
2021/11/20 10:08:25;;;;;;;22.75;7.38;;;11.20;99.90;;;;;;20706868;28;20042;-46
2021/11/20 10:18:40;;;;;;;29.08;8.80;;;11.10;99.90;;;;;;20709690;28;20068;-46
2021/11/20 10:28:53;;;;;;;21.92;7.78;;;11.20;99.90;;;;;;20703415;28;20770;-46
2021/11/20 10:39:00;;;;;;;26.33;9.15;;;11.20;99.90;;;;;;20698240;28;20056;-46
2021/11/20 10:49:15;;;;;;;26.63;8.60;;;11.20;99.90;;;;;;20713190;28;21047;-46
2021/11/20 10:59:17;;;;;;;21.80;8.93;;;11.20;99.90;;;;;;20704108;28;20361;-46
2021/11/20 11:09:36;;;;;;;24.77;7.97;;;11.20;99.90;;;;;;20705802;28;20045;-46
2021/11/20 11:19:37;;;;;;;25.25;8.07;;;11.20;99.90;;;;;;20704250;28;20401;-46
2021/11/20 11:30:00;;;;;;;26.52;9.35;;;11.30;99.90;;;;;;20716459;28;20481;-46
2021/11/20 11:40:28;;;;;;;22.70;8.85;;;11.20;99.90;;;;;;20749155;28;20535;-46
2021/11/20 11:51:19;;;;;;;22.90;9.20;;;11.20;99.90;;;;;;20747982;28;20398;-46
2021/11/20 12:01:39;;;;;;;20.90;7.68;;;11.20;99.90;;;;;;20646775;28;20037;-46
2021/11/20 12:11:42;;;;;;;24.17;8.48;;;11.20;99.90;;;;;;20713959;28;20494;-46
2021/11/20 12:22:30;;;;;;;20.55;8.30;;;11.20;99.90;;;;;;20699864;28;20880;-46
2021/11/20 12:32:36;;;;;;;23.13;7.93;;;11.30;99.90;;;;;;20712402;28;20044;-46
2021/11/20 12:42:56;;;;;;;24.23;7.37;;;11.30;99.90;;;;;;20730576;28;20057;-46
2021/11/20 12:53:22;;;;;;;22.55;6.88;;;11.20;99.90;;;;;;20732280;28;20029;-46
2021/11/20 13:03:28;;;;;;;25.92;6.97;;;11.30;99.90;;;;;;20742490;28;21388;-46
2021/11/20 13:13:42;;;;;;;20.58;6.95;;;11.30;99.90;;;;;;20749689;28;20049;-45
2021/11/20 13:23:45;;;;;;;18.60;7.55;;;11.30;99.90;;;;;;20735413;28;20045;-46
2021/11/20 13:33:47;;;;;;;16.77;7.18;;;11.10;99.90;;;;;;20731258;28;20044;-45
2021/11/20 13:43:50;;;;;;;20.95;6.38;;;11.10;99.90;;;;;;20733164;28;20058;-46
2021/11/20 13:53:56;;;;;;;16.05;5.40;;;10.90;99.90;;;;;;20735488;28;20045;-46
2021/11/20 14:04:00;;;;;;;18.08;4.75;;;10.90;99.90;;;;;;20726857;28;20584;-46
2021/11/20 14:14:01;;;;;;;15.35;5.65;;;10.80;99.90;;;;;;20722358;28;20038;-46
2021/11/20 14:24:11;;;;;;;15.75;6.47;;;10.90;99.90;;;;;;20731882;28;20547;-46
2021/11/20 14:34:16;;;;;;;16.83;6.10;;;10.90;99.90;;;;;;20735842;28;20044;-45
2021/11/20 14:44:19;;;;;;;13.45;5.53;;;10.80;99.90;;;;;;20730974;28;20049;-46
2021/11/20 14:54:26;;;;;;;18.35;6.72;;;10.80;99.90;;;;;;20731218;28;20191;-45
2021/11/20 15:04:27;;;;;;;14.32;5.30;;;10.80;99.90;;;;;;20728318;28;20711;-46
2021/11/20 15:14:28;;;;;;;15.90;5.70;;;10.70;99.90;;;;;;20725989;28;20053;-46
2021/11/20 15:24:31;;;;;;;14.85;5.85;;;10.70;99.90;;;;;;20730102;28;20580;-46
2021/11/20 15:34:34;;;;;;;13.00;5.60;;;10.60;99.90;;;;;;20693270;28;20409;-46
2021/11/20 15:44:36;;;;;;;19.85;6.30;;;10.50;99.90;;;;;;20717962;28;20042;-46
2021/11/20 15:54:39;;;;;;;18.92;4.95;;;10.50;99.90;;;;;;20723440;28;20033;-45
2021/11/20 16:04:41;;;;;;;18.85;7.03;;;10.40;99.90;;;;;;20721439;28;20386;-45
2021/11/20 16:14:42;;;;;;;18.65;7.57;;;10.40;99.90;;;;;;20727302;28;20425;-45
2021/11/20 16:24:43;;;;;;;24.88;8.40;;;10.30;99.90;;;;;;20733615;28;20069;-45
2021/11/20 16:34:46;;;;;;;19.55;7.43;;;10.20;99.90;;;;;;20731827;28;20125;-45
2021/11/20 16:44:47;;;;;;;20.13;6.45;;;10.10;99.90;;;;;;20732282;28;20075;-45
2021/11/20 16:54:48;;;;;;;22.50;7.72;;;10.10;99.90;;;;;;20721403;28;20034;-45
2021/11/20 17:04:49;;;;;;;23.40;6.70;;;10.00;99.90;;;;;;20743288;28;20425;-45
2021/11/20 17:14:51;;;;;;;18.40;7.63;;;10.00;99.90;;;;;;20733101;28;20430;-45
2021/11/20 17:24:52;;;;;;;22.70;7.80;;;9.90;99.90;;;;;;20746416;28;20038;-45
2021/11/20 17:34:53;;;;;;;22.88;7.10;;;10.00;99.90;;;;;;20752220;28;20948;-45
2021/11/20 17:44:54;;;;;;;21.23;7.57;;;9.80;99.90;;;;;;20747329;28;20065;-44
2021/11/20 17:54:55;;;;;;;25.30;9.15;;;9.90;99.90;;;;;;20747888;28;20041;-44
2021/11/20 18:04:56;;;;;;;18.35;7.22;;;9.80;99.90;;;;;;20747545;28;20148;-44
2021/11/20 18:14:58;;;;;;;24.92;8.02;;;9.70;99.90;;;;;;20746401;28;20389;-44
2021/11/20 18:24:59;;;;;;;20.95;8.05;;;9.80;99.90;;;;;;20747548;28;20110;-44
2021/11/20 18:35:00;;;;;;;18.73;7.35;;;9.80;99.90;;;;;;20745221;28;20280;-44
2021/11/20 18:45:04;;;;;;;19.42;7.45;;;9.90;99.90;;;;;;20749254;28;20045;-44
2021/11/20 18:55:07;;;;;;;22.25;7.18;;;9.80;99.90;;;;;;20745126;28;20045;-44
2021/11/20 19:05:08;;;;;;;18.77;6.78;;;9.80;99.90;;;;;;20744917;28;20042;-44
2021/11/20 19:15:10;;;;;;;21.92;8.50;;;9.70;99.90;;;;;;20728235;28;20046;-44
2021/11/20 19:25:14;;;;;;;17.30;6.82;;;9.80;99.90;;;;;;20733080;28;20125;-44
2021/11/20 19:35:17;;;;;;;20.95;7.43;;;9.70;99.90;;;;;;20730454;28;20038;-44
2021/11/20 19:45:18;;;;;;;22.45;8.38;;;9.70;99.90;;;;;;20746725;28;20044;-44
2021/11/20 19:55:20;;;;;;;24.48;8.98;;;9.70;99.90;;;;;;20799385;28;20049;-46
2021/11/20 20:05:21;;;;;;;27.08;8.95;;;9.80;99.90;;;;;;20792487;28;20040;-44
2021/11/20 20:15:23;;;;;;;18.83;8.27;;;9.80;99.90;;;;;;20802505;28;20041;-44
2021/11/20 20:25:25;;;;;;;21.05;7.93;;;9.80;99.90;;;;;;20813490;28;20060;-44
2021/11/20 20:35:26;;;;;;;22.50;6.63;;;9.70;99.90;;;;;;20812724;28;20037;-44
2021/11/20 20:45:28;;;;;;;18.05;7.20;;;9.80;99.90;;;;;;20813732;28;20045;-44
2021/11/20 20:55:29;;;;;;;15.75;6.47;;;9.80;99.90;;;;;;20817362;28;20041;-45
2021/11/20 21:05:32;;;;;;;7.43;3.17;;;9.90;99.90;;;;;;20831068;28;20041;-45
2021/11/20 21:15:34;;;;;;;3.30;1.05;;;10.10;99.90;;;;;;20823930;28;20034;-44
2021/11/20 21:25:35;;;;;;;3.00;1.13;;;10.00;99.90;;;;;;20821385;28;20036;-44
2021/11/20 21:35:37;;;;;;;2.58;1.02;;;9.90;99.90;;;;;;20820361;28;20034;-45
2021/11/20 21:45:38;;;;;;;2.65;1.00;;;9.90;99.90;;;;;;20813289;28;20661;-44
2021/11/20 21:55:39;;;;;;;3.42;1.10;;;9.80;99.90;;;;;;20816205;28;20045;-44
2021/11/20 22:05:41;;;;;;;2.92;0.98;;;9.70;99.90;;;;;;20820990;28;20961;-45
2021/11/20 22:15:42;;;;;;;3.03;1.35;;;9.60;99.90;;;;;;20814710;28;20049;-45
2021/11/20 22:25:43;;;;;;;3.95;1.25;;;9.60;99.90;;;;;;20821275;28;20277;-44
2021/11/20 22:35:44;;;;;;;3.40;1.33;;;9.60;99.90;;;;;;20822590;28;20045;-45
2021/11/20 22:45:45;;;;;;;6.93;1.33;;;9.60;99.90;;;;;;20821910;28;20045;-44
2021/11/20 22:55:46;;;;;;;16.13;1.55;;;9.50;99.90;;;;;;20819129;28;20084;-45
2021/11/20 23:05:49;;;;;;;4.35;1.42;;;9.60;99.90;;;;;;20807181;28;20044;-45
2021/11/20 23:15:50;;;;;;;5.50;1.63;;;9.60;99.90;;;;;;20810609;28;20045;-44
2021/11/20 23:25:54;;;;;;;5.78;1.77;;;9.50;99.90;;;;;;20812345;28;20049;-45
2021/11/20 23:36:00;;;;;;;6.57;2.13;;;9.50;99.90;;;;;;20809819;28;20041;-44
2021/11/20 23:46:01;;;;;;;7.97;2.58;;;9.40;99.90;;;;;;20814474;28;20044;-45
2021/11/20 23:56:02;;;;;;;6.70;2.72;;;9.50;99.90;;;;;;20809718;28;20691;-45
